首页
METAR-TAF:

METAR-TAF

机场 :

盖达尔·阿利耶夫国际机场

巴库, 阿塞拜疆

纬度: 40-27N, 经度: 050-04E, 海拔: -6米

当前天气观测

该预报发布于35分钟前的16:00 UTC
风速4节,风向南转南东
温度 8°C
湿度 87%
气压 1020 hPa
能见度10公里或以上
阴天层高于2800英尺

METAR: UBBB 121600Z 16004KT 9999 OVC028 08/06 Q1020 R88/CLRD// NOSIG

时间: 20:35 (16:35 UTC)

预报

该预报发布于5小时和20分钟前的11:15 UTC
预报有效从12日的 12点(UTC)到 13日的 12点(UTC)
风速8节,风向南转南东
能见度10公里或以上
多云层高于2300英尺
短暂存在
从 12日的 12点(UTC)到 12日的 18点(UTC)
风速4节,风向多变
散云层高于1200英尺
阴天层高于3000英尺
短暂存在
从 12日的 20点(UTC)到 13日的 04点(UTC)
散云层高于1100英尺
阴天层高于2000英尺
小雨
成为
从 13日的 04点(UTC)到 13日的 06点(UTC)
风速12节,风向南转南东
短暂存在
从 13日的 06点(UTC)到 13日的 12点(UTC)
散云层高于1200英尺
阴天层高于2000英尺
小雨

TAF: UBBB 121115Z 1212/1312 15008KT 9999 BKN023 TX09/1212Z TN06/1302Z TEMPO 1212/1218 VRB04KT SCT012 OVC030 TEMPO 1220/1304 -RA SCT011 OVC020 BECMG 1304/1306 16012KT TEMPO 1306/1312 -RA SCT012 OVC020

超过4000个机场的气象观测和天气预报(METAR&TAF报告)。

可查询的气象台以黄色和红色小点在地图上表示。

将鼠标移到小点上方,可查看气象台名称。

然后点击查看天气观测和预报。

如需切换地图:点击带黑十字的绿色按钮放大地图;点击带横线的绿色按钮缩小地图;或者点击绿色箭头查看邻近地区的地图。


METAR-TAF: